createdAt,value
2019-05-26T00:01:37.356Z,16.05
2019-05-26T00:04:09.411Z,15.93
2019-05-26T00:06:41.389Z,15.83
2019-05-26T00:09:13.380Z,15.75
2019-05-26T00:11:46.335Z,15.67
2019-05-26T00:14:18.307Z,15.65
2019-05-26T00:16:50.260Z,15.62
2019-05-26T00:19:22.223Z,15.60
2019-05-26T00:21:54.249Z,15.62
2019-05-26T00:24:26.217Z,15.66
2019-05-26T00:26:58.189Z,15.70
2019-05-26T00:29:30.554Z,15.71
2019-05-26T00:32:02.638Z,15.70
2019-05-26T00:34:34.590Z,15.68
2019-05-26T00:37:06.586Z,15.66
2019-05-26T00:39:38.515Z,15.63
2019-05-26T00:42:10.865Z,15.65
2019-05-26T00:44:42.823Z,15.69
2019-05-26T00:47:14.891Z,15.71
2019-05-26T00:49:46.878Z,15.74
2019-05-26T00:52:18.869Z,15.77
2019-05-26T00:54:50.986Z,15.82
2019-05-26T00:57:23.203Z,15.81
2019-05-26T00:59:55.173Z,15.87
2019-05-26T01:02:27.150Z,15.87
2019-05-26T01:04:59.089Z,15.87
2019-05-26T01:07:31.052Z,15.88
2019-05-26T01:10:03.015Z,15.88
2019-05-26T01:12:35.004Z,15.87
2019-05-26T01:15:07.977Z,15.89
2019-05-26T01:17:40.238Z,15.87
2019-05-26T01:20:12.524Z,15.84
2019-05-26T01:22:44.552Z,15.86
2019-05-26T01:25:16.845Z,15.84
2019-05-26T01:27:48.807Z,15.85
2019-05-26T01:30:26.632Z,15.84
2019-05-26T01:32:59.656Z,15.83
2019-05-26T01:35:31.623Z,15.83
2019-05-26T01:38:03.766Z,15.86
2019-05-26T01:40:40.900Z,15.83
2019-05-26T01:43:13.029Z,15.82
2019-05-26T01:45:44.997Z,15.81
2019-05-26T01:48:16.944Z,15.82
2019-05-26T01:50:48.923Z,15.83
2019-05-26T01:53:21.159Z,15.81
2019-05-26T01:55:53.106Z,15.80
2019-05-26T01:58:25.117Z,15.82
2019-05-26T02:00:57.195Z,15.84
2019-05-26T02:03:29.257Z,15.88
2019-05-26T02:06:01.302Z,15.88
2019-05-26T02:08:39.306Z,15.89
2019-05-26T02:11:07.027Z,15.89
2019-05-26T02:13:39.099Z,15.92
2019-05-26T02:16:12.503Z,15.91
2019-05-26T02:18:44.517Z,15.91
2019-05-26T02:21:16.595Z,15.89
2019-05-26T02:23:48.739Z,15.87
2019-05-26T02:26:20.987Z,15.85
2019-05-26T02:28:53.051Z,15.83
2019-05-26T02:31:25.124Z,15.80
2019-05-26T02:33:57.060Z,15.77
2019-05-26T02:36:29.072Z,15.73
2019-05-26T02:39:03.318Z,15.72
2019-05-26T02:41:34.857Z,15.72
2019-05-26T02:44:07.152Z,15.71
2019-05-26T02:46:39.083Z,15.66
2019-05-26T02:49:11.195Z,15.63
2019-05-26T02:51:43.205Z,15.58
2019-05-26T02:54:15.144Z,15.51
2019-05-26T02:56:47.284Z,15.46
2019-05-26T02:59:19.312Z,15.38
2019-05-26T03:02:03.139Z,15.35
2019-05-26T03:04:25.152Z,15.35
2019-05-26T03:06:58.607Z,15.37
2019-05-26T03:09:32.220Z,15.39
2019-05-26T03:12:05.642Z,15.43
2019-05-26T03:14:40.516Z,15.47
2019-05-26T03:17:12.636Z,15.51
2019-05-26T03:19:47.472Z,15.55
2019-05-26T03:22:23.526Z,15.65
2019-05-26T03:24:56.162Z,15.73
2019-05-26T03:27:28.222Z,15.81
2019-05-26T03:30:00.693Z,15.87
2019-05-26T03:32:32.756Z,15.94
2019-05-26T03:35:05.478Z,15.95
2019-05-26T03:37:37.477Z,15.96
2019-05-26T03:40:13.079Z,15.98
2019-05-26T03:42:45.050Z,16.00
2019-05-26T03:45:31.608Z,16.03
2019-05-26T03:48:03.658Z,16.08
2019-05-26T03:50:35.702Z,16.18
2019-05-26T03:53:07.698Z,16.22
2019-05-26T03:55:40.216Z,16.28
2019-05-26T03:58:12.172Z,16.36
2019-05-26T04:00:44.153Z,16.44
2019-05-26T04:03:16.278Z,16.60
2019-05-26T04:05:48.276Z,16.81
2019-05-26T04:08:20.562Z,16.95
2019-05-26T04:10:52.617Z,17.08
2019-05-26T04:13:24.566Z,17.22
2019-05-26T04:15:56.582Z,17.48
2019-05-26T04:18:28.570Z,17.73
2019-05-26T04:21:00.644Z,17.79
2019-05-26T04:23:32.822Z,17.83
2019-05-26T04:26:04.806Z,17.90
2019-05-26T04:28:36.785Z,17.99
2019-05-26T04:31:08.753Z,18.27
2019-05-26T04:33:41.009Z,18.60
2019-05-26T04:36:13.000Z,18.92
2019-05-26T04:38:44.961Z,19.20
2019-05-26T04:41:16.960Z,19.53
2019-05-26T04:43:48.927Z,19.99
2019-05-26T04:46:21.179Z,20.59
2019-05-26T04:48:53.242Z,21.35
2019-05-26T04:51:25.200Z,22.20
2019-05-26T04:53:57.288Z,22.92
2019-05-26T04:56:30.461Z,23.57
2019-05-26T04:59:02.526Z,23.50
2019-05-26T05:01:34.529Z,23.57
2019-05-26T05:04:06.799Z,23.43
2019-05-26T05:06:40.253Z,23.85
2019-05-26T05:09:13.366Z,26.25
2019-05-26T05:11:45.346Z,28.23
2019-05-26T05:14:17.344Z,29.85
2019-05-26T05:16:49.288Z,31.31
2019-05-26T05:19:23.066Z,32.60
2019-05-26T05:21:55.042Z,33.77
2019-05-26T05:24:28.831Z,35.01
2019-05-26T05:27:01.203Z,36.04
2019-05-26T05:29:34.663Z,37.18
2019-05-26T05:32:06.882Z,38.18
2019-05-26T05:34:38.976Z,39.21
2019-05-26T05:37:11.082Z,40.28
2019-05-26T05:39:43.066Z,41.00
2019-05-26T05:42:16.905Z,42.23
2019-05-26T05:44:51.771Z,42.91
2019-05-26T05:47:24.064Z,43.86
2019-05-26T05:49:56.195Z,44.74
2019-05-26T05:52:28.221Z,45.27
2019-05-26T05:55:00.662Z,45.71
2019-05-26T05:57:32.630Z,46.43
2019-05-26T06:00:05.796Z,47.07
2019-05-26T06:02:37.849Z,46.99
2019-05-26T06:05:10.626Z,48.46
2019-05-26T06:07:42.588Z,49.46
2019-05-26T06:10:16.126Z,50.49
2019-05-26T06:12:48.129Z,51.30
2019-05-26T06:15:20.195Z,52.30
2019-05-26T06:17:52.173Z,53.36
2019-05-26T06:20:24.226Z,53.93
2019-05-26T06:22:56.197Z,54.43
2019-05-26T06:25:28.246Z,55.31
2019-05-26T06:28:00.875Z,55.95
2019-05-26T06:30:33.050Z,56.70
2019-05-26T06:33:05.013Z,56.77
2019-05-26T06:35:37.107Z,57.20
2019-05-26T06:38:10.180Z,58.38
2019-05-26T06:40:43.768Z,59.64
2019-05-26T06:43:15.742Z,60.77
2019-05-26T06:45:47.824Z,61.94
2019-05-26T06:48:19.779Z,62.97
2019-05-26T06:50:51.764Z,64.04
2019-05-26T06:53:23.768Z,64.47
2019-05-26T06:55:55.773Z,64.07
2019-05-26T07:48:04.535Z,49.16
2019-05-26T07:54:51.406Z,43.59
2019-05-26T07:57:21.750Z,44.73
2019-05-26T07:59:52.133Z,46.12
2019-05-26T08:02:22.520Z,46.41
2019-05-26T08:04:53.009Z,46.08
2019-05-26T08:07:24.457Z,46.50
2019-05-26T08:09:54.806Z,47.15
2019-05-26T08:12:29.752Z,46.89
2019-05-26T08:14:57.286Z,47.36
2019-05-26T08:17:27.673Z,47.70
2019-05-26T08:19:58.003Z,47.93
2019-05-26T08:22:28.337Z,47.16
2019-05-26T08:24:58.953Z,47.47
2019-05-26T08:27:29.705Z,47.83
2019-05-26T08:30:00.144Z,47.65
2019-05-26T08:32:30.474Z,47.87
2019-05-26T08:35:00.855Z,48.22
2019-05-26T08:37:31.229Z,48.74
2019-05-26T08:40:18.258Z,47.91
2019-05-26T08:42:49.837Z,47.96
2019-05-26T08:45:21.992Z,47.61
2019-05-26T08:47:52.982Z,48.09
2019-05-26T08:50:23.327Z,48.91
2019-05-26T08:52:53.676Z,48.40
2019-05-26T08:55:24.061Z,46.86
2019-05-26T08:57:54.393Z,44.90
2019-05-26T09:00:25.674Z,45.54
2019-05-26T09:02:56.138Z,46.66
2019-05-26T09:05:26.518Z,45.56
2019-05-26T09:07:56.836Z,45.78
2019-05-26T09:10:27.283Z,47.50
2019-05-26T09:13:01.323Z,47.93
2019-05-26T09:15:29.697Z,48.08
2019-05-26T09:18:00.027Z,49.00
2019-05-26T09:20:30.377Z,49.27
2019-05-26T09:23:00.680Z,49.50
2019-05-26T09:25:31.034Z,49.04
2019-05-26T09:28:01.476Z,48.78
2019-05-26T09:30:31.810Z,49.00
2019-05-26T09:33:02.170Z,49.46
2019-05-26T09:35:32.573Z,50.05
2019-05-26T09:38:02.924Z,50.17
2019-05-26T09:40:33.261Z,50.50
2019-05-26T09:43:15.742Z,50.76
2019-05-26T09:45:35.638Z,51.27
2019-05-26T09:48:05.969Z,52.19
2019-05-26T09:50:36.358Z,52.02
2019-05-26T09:53:06.683Z,51.62
2019-05-26T09:55:37.062Z,51.75
2019-05-26T09:58:07.451Z,50.99
2019-05-26T10:00:37.792Z,51.84
2019-05-26T10:03:08.384Z,49.60
2019-05-26T10:05:39.041Z,48.41
2019-05-26T10:08:09.725Z,47.95
2019-05-26T10:10:40.057Z,48.08
2019-05-26T10:13:10.423Z,49.91
2019-05-26T10:15:40.803Z,50.81
2019-05-26T10:18:11.185Z,51.38
2019-05-26T10:20:41.539Z,52.69
2019-05-26T10:23:11.915Z,51.77
2019-05-26T10:25:42.203Z,50.54
2019-05-26T10:28:12.542Z,47.44
2019-05-26T10:30:42.863Z,47.00
2019-05-26T10:33:13.274Z,48.10
2019-05-26T10:35:43.613Z,50.09
2019-05-26T10:38:13.949Z,51.62
2019-05-26T10:40:44.261Z,51.37
2019-05-26T10:43:14.582Z,50.04
2019-05-26T10:45:45.058Z,47.79
2019-05-26T10:48:15.411Z,47.09
2019-05-26T10:50:45.782Z,48.75
2019-05-26T10:53:16.105Z,49.50
2019-05-26T10:55:46.520Z,50.18
2019-05-26T10:58:16.920Z,48.98
2019-05-26T11:00:47.283Z,49.25
2019-05-26T11:03:17.605Z,50.34
2019-05-26T11:05:47.942Z,49.56
2019-05-26T11:08:18.306Z,49.73
2019-05-26T11:10:48.903Z,48.05
2019-05-26T11:13:19.614Z,45.99
2019-05-26T11:15:49.959Z,45.39
2019-05-26T11:18:20.386Z,45.40
2019-05-26T11:20:50.784Z,43.43
2019-05-26T11:23:21.146Z,43.06
2019-05-26T11:25:51.477Z,42.64
2019-05-26T11:28:21.837Z,41.39
2019-05-26T11:30:52.226Z,39.24
2019-05-26T11:33:22.559Z,37.43
2019-05-26T11:35:52.929Z,36.23
2019-05-26T11:38:23.328Z,35.29
2019-05-26T11:40:53.704Z,34.56
2019-05-26T11:43:24.039Z,34.03
2019-05-26T11:45:55.906Z,33.34
2019-05-26T11:48:26.398Z,32.79
2019-05-26T11:50:56.802Z,32.64
2019-05-26T11:53:27.227Z,32.04
2019-05-26T11:55:57.622Z,31.48
2019-05-26T11:58:28.290Z,31.21
2019-05-26T12:00:59.072Z,30.95
2019-05-26T12:03:29.761Z,30.93
2019-05-26T12:06:00.344Z,30.75
2019-05-26T12:08:30.839Z,30.43
2019-05-26T12:11:01.211Z,30.18
2019-05-26T12:13:31.639Z,30.25
2019-05-26T12:16:02.084Z,30.23
2019-05-26T12:18:32.552Z,30.44
2019-05-26T12:21:03.022Z,30.15
2019-05-26T12:23:33.394Z,30.01
2019-05-26T12:26:03.839Z,29.76
2019-05-26T12:28:34.198Z,29.56
2019-05-26T12:31:04.754Z,29.55
2019-05-26T12:33:35.102Z,29.42
2019-05-26T12:36:05.472Z,29.24
2019-05-26T12:38:38.743Z,29.00
2019-05-26T12:41:09.386Z,28.56
2019-05-26T12:43:39.736Z,28.58
2019-05-26T12:46:10.058Z,28.51
2019-05-26T12:48:40.401Z,28.40
2019-05-26T12:51:10.894Z,28.31
2019-05-26T12:53:41.243Z,28.65
2019-05-26T12:56:11.702Z,28.92
2019-05-26T12:58:42.103Z,29.15
2019-05-26T13:01:12.581Z,29.19
2019-05-26T13:03:42.983Z,28.92
2019-05-26T13:06:13.333Z,28.79
2019-05-26T13:08:43.663Z,28.60
2019-05-26T13:11:14.085Z,28.65
2019-05-26T13:13:44.410Z,28.61
2019-05-26T13:16:14.765Z,28.50
2019-05-26T13:18:46.155Z,28.69
2019-05-26T13:21:16.515Z,28.62
2019-05-26T13:23:46.884Z,28.33
2019-05-26T13:26:17.259Z,27.92
2019-05-26T13:28:47.754Z,27.68
2019-05-26T13:31:18.090Z,27.53
2019-05-26T13:33:48.807Z,27.56
2019-05-26T13:36:19.431Z,27.48
2019-05-26T13:38:49.782Z,27.65
2019-05-26T13:41:20.301Z,27.74
2019-05-26T13:43:50.898Z,27.60
2019-05-26T13:46:21.237Z,27.44
2019-05-26T13:48:51.635Z,27.49
2019-05-26T13:51:22.090Z,27.29
2019-05-26T13:53:52.534Z,27.33
2019-05-26T13:56:22.990Z,27.55
2019-05-26T13:58:53.450Z,27.67
2019-05-26T14:01:23.814Z,27.85
2019-05-26T14:03:54.248Z,27.88
2019-05-26T14:06:24.576Z,28.12
2019-05-26T14:08:54.993Z,27.83
2019-05-26T14:11:25.370Z,27.53
2019-05-26T14:13:55.742Z,27.29
2019-05-26T14:16:27.762Z,27.10
2019-05-26T14:18:58.689Z,26.84
2019-05-26T14:21:29.038Z,26.76
2019-05-26T14:23:59.395Z,26.69
2019-05-26T14:26:29.823Z,26.67
2019-05-26T14:29:00.099Z,26.45
2019-05-26T14:31:30.442Z,26.22
2019-05-26T14:34:00.836Z,26.22
2019-05-26T14:36:31.344Z,26.10
2019-05-26T14:39:01.669Z,26.05
2019-05-26T14:41:32.158Z,25.78
2019-05-26T14:44:02.491Z,25.89
2019-05-26T14:46:32.847Z,25.93
2019-05-26T14:49:03.205Z,25.83
2019-05-26T14:51:33.592Z,25.76
2019-05-26T14:54:03.914Z,25.60
2019-05-26T14:56:34.308Z,25.44
2019-05-26T14:59:04.672Z,25.51
2019-05-26T15:01:35.161Z,25.38
2019-05-26T15:04:05.493Z,25.30
2019-05-26T15:06:35.803Z,25.29
2019-05-26T15:09:22.409Z,25.27
2019-05-26T15:11:40.179Z,25.20
2019-05-26T15:14:10.564Z,25.21
2019-05-26T15:16:41.012Z,25.30
2019-05-26T15:19:11.418Z,25.39
2019-05-26T15:21:41.764Z,25.38
2019-05-26T15:24:12.246Z,25.40
2019-05-26T15:26:42.604Z,25.34
2019-05-26T15:29:12.958Z,25.57
2019-05-26T15:31:43.329Z,25.60
2019-05-26T15:34:13.694Z,25.55
2019-05-26T15:36:44.137Z,25.45
2019-05-26T15:39:14.515Z,25.40
2019-05-26T15:41:47.148Z,25.40
2019-05-26T15:44:17.583Z,25.47
2019-05-26T15:46:47.923Z,25.73
2019-05-26T15:49:18.290Z,26.16
2019-05-26T15:51:48.635Z,26.27
2019-05-26T15:54:19.110Z,26.08
2019-05-26T15:56:49.463Z,26.11
2019-05-26T15:59:19.850Z,26.19
2019-05-26T16:01:51.291Z,26.29
2019-05-26T16:04:21.696Z,26.34
2019-05-26T16:06:52.065Z,26.37
2019-05-26T16:09:22.551Z,26.38
2019-05-26T16:11:52.935Z,26.42
2019-05-26T16:14:23.332Z,26.41
2019-05-26T16:16:54.815Z,26.44
2019-05-26T16:19:25.193Z,26.52
2019-05-26T16:21:55.551Z,26.48
2019-05-26T16:24:25.931Z,26.53
2019-05-26T16:26:56.370Z,26.46
2019-05-26T16:29:26.897Z,26.42
2019-05-26T16:31:57.311Z,26.39
2019-05-26T16:34:27.766Z,26.33
2019-05-26T16:36:58.154Z,25.98
2019-05-26T16:39:36.832Z,25.92
2019-05-26T16:42:01.113Z,25.88
2019-05-26T16:44:31.576Z,25.77
2019-05-26T16:47:02.993Z,25.75
2019-05-26T16:49:33.378Z,25.59
2019-05-26T16:52:03.771Z,25.49
2019-05-26T16:54:34.164Z,25.36
2019-05-26T16:57:04.637Z,25.18
2019-05-26T16:59:35.107Z,25.18
2019-05-26T17:02:05.588Z,25.11
2019-05-26T17:04:36.319Z,25.11
2019-05-26T17:07:06.706Z,24.91
2019-05-26T17:09:37.026Z,24.84
2019-05-26T17:12:07.403Z,24.80
2019-05-26T17:14:37.740Z,24.67
2019-05-26T17:17:14.712Z,24.60
2019-05-26T17:19:40.268Z,24.51
2019-05-26T17:22:11.725Z,24.41
2019-05-26T17:24:42.168Z,24.40
2019-05-26T17:27:12.677Z,24.29
2019-05-26T17:29:43.160Z,24.14
2019-05-26T17:32:13.652Z,24.05
2019-05-26T17:34:44.021Z,24.01
2019-05-26T17:37:14.412Z,23.88
2019-05-26T17:39:44.749Z,23.80
2019-05-26T17:42:15.170Z,23.63
2019-05-26T17:44:45.527Z,23.48
2019-05-26T17:47:29.302Z,23.43
2019-05-26T17:49:50.511Z,23.38
2019-05-26T17:52:20.951Z,23.28
2019-05-26T17:54:54.191Z,23.14
2019-05-26T17:57:24.598Z,23.04
2019-05-26T17:59:54.999Z,22.91
2019-05-26T18:02:26.493Z,22.88
2019-05-26T18:04:56.876Z,22.80
2019-05-26T18:07:27.282Z,22.74
2019-05-26T18:09:57.780Z,22.65
2019-05-26T18:12:29.105Z,22.57
2019-05-26T18:14:59.771Z,22.40
2019-05-26T18:17:45.858Z,22.35
2019-05-26T18:20:02.370Z,22.19
2019-05-26T18:22:32.785Z,22.08
2019-05-26T18:25:03.305Z,21.95
2019-05-26T18:27:33.658Z,22.05
2019-05-26T18:30:04.156Z,21.88
2019-05-26T18:32:34.638Z,21.78
2019-05-26T18:35:05.675Z,21.77
2019-05-26T18:37:36.113Z,21.68
2019-05-26T18:40:06.978Z,21.59
2019-05-26T18:42:37.499Z,21.53
2019-05-26T18:45:08.107Z,21.40
2019-05-26T18:47:38.557Z,21.33
2019-05-26T18:50:09.528Z,21.22
2019-05-26T18:52:39.925Z,21.19
2019-05-26T18:55:10.449Z,21.04
2019-05-26T18:57:40.943Z,21.01
2019-05-26T19:00:12.093Z,20.81
2019-05-26T19:02:42.498Z,20.77
2019-05-26T19:05:13.141Z,20.56
2019-05-26T19:07:43.483Z,20.56
2019-05-26T19:10:14.059Z,20.49
2019-05-26T19:12:44.578Z,20.43
2019-05-26T19:15:15.089Z,20.33
2019-05-26T19:17:45.491Z,20.19
2019-05-26T19:20:17.287Z,20.19
2019-05-26T19:22:47.977Z,20.15
2019-05-26T19:25:18.469Z,20.16
2019-05-26T19:27:48.874Z,20.25
2019-05-26T19:30:19.226Z,20.27
2019-05-26T19:32:49.620Z,20.27
2019-05-26T19:35:20.006Z,20.33
2019-05-26T19:37:50.398Z,20.29
2019-05-26T19:40:21.056Z,20.29
2019-05-26T19:42:51.428Z,20.29
2019-05-26T19:45:21.829Z,20.24
2019-05-26T19:47:52.302Z,20.23
2019-05-26T19:50:22.689Z,20.18
2019-05-26T19:52:53.150Z,20.15
2019-05-26T19:55:23.548Z,20.15
2019-05-26T19:57:55.033Z,20.09
2019-05-26T20:00:25.659Z,19.98
2019-05-26T20:02:56.269Z,19.94
2019-05-26T20:05:26.818Z,19.90
2019-05-26T20:07:57.220Z,19.80
2019-05-26T20:10:27.609Z,19.82
2019-05-26T20:12:57.968Z,19.75
2019-05-26T20:15:28.456Z,19.69
2019-05-26T20:17:58.798Z,19.63
2019-05-26T20:20:29.197Z,19.54
2019-05-26T20:22:59.602Z,19.47
2019-05-26T20:25:29.989Z,19.40
2019-05-26T20:28:00.472Z,19.22
2019-05-26T20:30:30.859Z,19.22
2019-05-26T20:33:01.305Z,19.09
2019-05-26T20:35:31.791Z,19.01
2019-05-26T20:38:02.283Z,18.94
2019-05-26T20:40:32.628Z,19.01
2019-05-26T20:43:03.030Z,19.02
2019-05-26T20:45:33.412Z,19.07
2019-05-26T20:48:03.874Z,19.05
2019-05-26T20:50:34.264Z,19.09
2019-05-26T20:53:04.737Z,19.19
2019-05-26T20:55:35.112Z,19.19
2019-05-26T20:58:05.539Z,19.20
2019-05-26T21:00:36.141Z,19.18
2019-05-26T21:03:06.500Z,19.05
2019-05-26T21:05:36.876Z,18.88
2019-05-26T21:08:07.292Z,18.89
2019-05-26T21:10:37.842Z,18.81
2019-05-26T21:13:08.257Z,18.84
2019-05-26T21:15:38.611Z,18.91
2019-05-26T21:18:08.993Z,18.83
2019-05-26T21:20:39.510Z,18.79
2019-05-26T21:23:09.862Z,18.61
2019-05-26T21:25:40.210Z,18.60
2019-05-26T21:28:10.828Z,18.57
2019-05-26T21:30:41.174Z,18.52
2019-05-26T21:33:11.667Z,18.58
2019-05-26T21:35:42.023Z,18.64
2019-05-26T21:38:12.591Z,18.57
2019-05-26T21:40:43.015Z,18.55
2019-05-26T21:43:13.352Z,18.50
2019-05-26T21:45:43.829Z,18.42
2019-05-26T21:48:14.200Z,18.45
2019-05-26T21:50:44.596Z,18.35
2019-05-26T21:53:14.950Z,18.29
2019-05-26T21:55:45.586Z,18.32
2019-05-26T21:58:16.010Z,18.27
2019-05-26T22:00:48.194Z,18.11
2019-05-26T22:03:18.738Z,18.08
2019-05-26T22:05:49.110Z,18.04
2019-05-26T22:08:19.480Z,18.00
2019-05-26T22:10:49.849Z,18.02
2019-05-26T22:13:20.210Z,17.96
2019-05-26T22:15:50.640Z,17.99
2019-05-26T22:18:21.134Z,17.83
2019-05-26T22:20:51.555Z,17.84
2019-05-26T22:23:21.920Z,17.87
2019-05-26T22:25:52.304Z,17.84
2019-05-26T22:28:22.725Z,17.78
2019-05-26T22:30:53.133Z,17.83
2019-05-26T22:33:23.502Z,17.77
2019-05-26T22:35:53.857Z,17.86
2019-05-26T22:38:24.314Z,17.78
2019-05-26T22:40:54.710Z,17.74
2019-05-26T22:43:25.065Z,17.73
2019-05-26T22:45:55.440Z,17.76
2019-05-26T22:48:25.939Z,17.77
2019-05-26T22:50:56.347Z,17.75
2019-05-26T22:53:26.688Z,17.76
2019-05-26T22:55:57.073Z,17.71
2019-05-26T22:58:27.440Z,17.73
2019-05-26T23:00:57.772Z,17.61
2019-05-26T23:03:28.606Z,17.66
2019-05-26T23:05:58.981Z,17.67
2019-05-26T23:08:29.366Z,17.67
2019-05-26T23:10:59.766Z,17.60
2019-05-26T23:13:30.134Z,17.51
2019-05-26T23:16:00.562Z,17.52
2019-05-26T23:18:30.945Z,17.50
2019-05-26T23:21:01.313Z,17.50
2019-05-26T23:23:31.712Z,17.40
2019-05-26T23:26:02.082Z,17.39
2019-05-26T23:28:32.469Z,17.39
2019-05-26T23:31:02.847Z,17.37
2019-05-26T23:33:33.224Z,17.41
2019-05-26T23:36:03.619Z,17.38
2019-05-26T23:38:33.990Z,17.37
2019-05-26T23:41:04.366Z,17.30
2019-05-26T23:43:35.262Z,17.33
2019-05-26T23:46:05.645Z,17.30
2019-05-26T23:48:36.012Z,17.31
2019-05-26T23:51:06.390Z,17.29
2019-05-26T23:53:36.816Z,17.36
2019-05-26T23:56:07.164Z,17.40
2019-05-26T23:58:37.538Z,17.41
